Time;durP1;ratioP1;P1;durP2;ratioP2;P2;SDS_P1;SDS_P2;PMS_P1;PMS_P2;Temp;Humidity;BMP_temperature;BMP_pressure;BME280_temperature;BME280_humidity;BME280_pressure;Samples;Min_cycle;Max_cycle;Signal;HPM_P1;HPM_P2
2021/03/15 00:02:20;;;;;;;5.07;4.57;;;3.80;99.90;;;;;;5093034;28;20260;-83
2021/03/15 00:04:46;;;;;;;5.25;4.30;;;3.70;99.90;;;;;;5092179;28;20723;-84
2021/03/15 00:07:13;;;;;;;5.40;4.88;;;3.70;99.90;;;;;;5092699;28;20213;-83
2021/03/15 00:09:39;;;;;;;4.95;3.88;;;3.70;99.90;;;;;;5090733;28;20214;-84
2021/03/15 00:12:08;;;;;;;7.93;4.63;;;3.60;99.90;;;;;;5091073;28;20194;-84
2021/03/15 00:14:34;;;;;;;11.25;4.35;;;3.60;99.90;;;;;;5089744;28;20201;-84
2021/03/15 00:17:02;;;;;;;4.45;3.70;;;3.70;99.90;;;;;;5090153;28;20626;-83
2021/03/15 00:19:28;;;;;;;4.90;4.00;;;3.80;99.90;;;;;;5090327;28;20218;-83
2021/03/15 00:21:55;;;;;;;4.30;3.90;;;3.60;99.90;;;;;;5090837;28;20195;-84
2021/03/15 00:24:21;;;;;;;6.22;4.45;;;3.50;99.90;;;;;;5089112;28;20202;-84
2021/03/15 00:26:48;;;;;;;4.80;3.90;;;3.50;99.90;;;;;;5090982;28;20216;-84
2021/03/15 00:29:14;;;;;;;4.28;3.70;;;3.60;99.90;;;;;;5089526;28;20540;-84
2021/03/15 00:31:41;;;;;;;4.50;3.65;;;3.60;99.90;;;;;;5091254;28;20208;-84
2021/03/15 00:34:08;;;;;;;5.50;4.57;;;3.50;99.90;;;;;;5089890;28;20206;-84
2021/03/15 00:36:34;;;;;;;4.80;4.30;;;3.40;99.90;;;;;;5089216;28;20194;-84
2021/03/15 00:39:01;;;;;;;8.43;4.68;;;3.50;99.90;;;;;;5089750;28;20233;-85
2021/03/15 00:41:27;;;;;;;9.63;4.90;;;3.60;99.90;;;;;;5091146;28;20202;-84
2021/03/15 00:43:54;;;;;;;6.28;4.50;;;3.50;99.90;;;;;;5089455;28;20195;-84
2021/03/15 00:46:20;;;;;;;9.70;4.45;;;3.50;99.90;;;;;;5090503;28;20620;-84
2021/03/15 00:48:47;;;;;;;5.53;4.35;;;3.50;99.90;;;;;;5089584;28;20202;-84
2021/03/15 00:51:14;;;;;;;5.13;4.63;;;3.40;99.90;;;;;;5090490;28;20561;-84
2021/03/15 00:53:40;;;;;;;4.75;4.35;;;3.40;99.90;;;;;;5089678;28;20209;-84
2021/03/15 00:56:07;;;;;;;5.47;4.93;;;3.40;99.90;;;;;;5090649;28;20233;-84
2021/03/15 00:58:33;;;;;;;4.43;4.03;;;3.50;99.90;;;;;;5090737;28;20292;-84
2021/03/15 01:01:00;;;;;;;4.10;3.75;;;3.40;99.90;;;;;;5091777;28;20199;-84
2021/03/15 01:03:27;;;;;;;4.80;4.30;;;3.30;99.90;;;;;;5090952;28;20222;-84
2021/03/15 01:05:55;;;;;;;7.68;4.50;;;3.50;99.90;;;;;;5089965;28;20677;-84
2021/03/15 01:08:22;;;;;;;5.97;4.80;;;3.50;99.90;;;;;;5090719;28;20195;-84
2021/03/15 01:10:49;;;;;;;6.13;4.65;;;3.40;99.90;;;;;;5091261;28;20223;-84
2021/03/15 01:13:16;;;;;;;7.45;4.22;;;3.40;99.90;;;;;;5090410;28;20236;-84
2021/03/15 01:15:44;;;;;;;5.22;4.57;;;3.50;99.90;;;;;;5090831;28;20207;-84
2021/03/15 01:18:11;;;;;;;7.82;4.45;;;3.50;99.90;;;;;;5090529;28;20229;-84
2021/03/15 01:20:38;;;;;;;5.13;4.63;;;3.50;99.90;;;;;;5091212;28;20221;-84
2021/03/15 01:23:05;;;;;;;7.90;5.82;;;3.60;99.90;;;;;;5089757;28;20221;-85
2021/03/15 01:25:33;;;;;;;5.78;5.13;;;3.60;99.90;;;;;;5092627;28;20207;-85
2021/03/15 01:28:00;;;;;;;6.53;4.95;;;3.60;99.90;;;;;;5093320;28;20191;-85
2021/03/15 01:30:29;;;;;;;7.38;5.57;;;3.50;99.90;;;;;;5094237;28;20210;-84
2021/03/15 01:32:56;;;;;;;5.10;4.32;;;3.50;99.90;;;;;;5093019;28;20183;-85
2021/03/15 01:35:23;;;;;;;6.30;4.85;;;3.50;99.90;;;;;;5092455;28;20399;-83
2021/03/15 01:37:50;;;;;;;6.50;5.30;;;3.50;99.90;;;;;;5093351;28;20264;-84
2021/03/15 01:40:17;;;;;;;5.57;4.90;;;3.50;99.90;;;;;;5093919;28;20226;-84
2021/03/15 01:42:45;;;;;;;8.25;4.88;;;3.50;99.90;;;;;;5093226;28;20597;-84
2021/03/15 01:45:12;;;;;;;6.07;4.30;;;3.40;99.90;;;;;;5093695;28;20199;-84
2021/03/15 01:47:40;;;;;;;5.13;4.63;;;3.40;99.90;;;;;;5093127;28;20195;-83
2021/03/15 01:50:09;;;;;;;4.60;3.80;;;3.40;99.90;;;;;;5092578;28;20194;-84
2021/03/15 01:52:36;;;;;;;5.10;3.90;;;3.20;99.90;;;;;;5092610;28;20194;-84
2021/03/15 01:55:04;;;;;;;4.82;4.43;;;3.20;99.90;;;;;;5093378;28;20191;-84
2021/03/15 01:57:31;;;;;;;5.93;4.93;;;3.20;99.90;;;;;;5092973;28;20721;-84
2021/03/15 01:59:58;;;;;;;4.68;4.25;;;3.10;99.90;;;;;;5092769;28;20692;-84
2021/03/15 02:02:26;;;;;;;4.65;4.25;;;3.20;99.90;;;;;;5091754;28;20191;-84
2021/03/15 02:04:54;;;;;;;4.75;4.15;;;3.20;99.90;;;;;;5093063;28;20202;-84
2021/03/15 02:07:21;;;;;;;6.07;5.03;;;3.20;99.90;;;;;;5092571;28;20198;-84
2021/03/15 02:09:51;;;;;;;4.95;4.15;;;3.20;99.90;;;;;;5089665;28;20564;-83
2021/03/15 02:12:31;;;;;;;4.72;4.30;;;3.20;99.90;;;;;;5086548;28;20214;-84
2021/03/15 02:15:09;;;;;;;5.47;4.88;;;3.20;99.90;;;;;;5086157;28;20652;-84
2021/03/15 02:17:43;;;;;;;6.43;4.85;;;3.20;99.90;;;;;;5092237;28;20297;-84
2021/03/15 02:20:41;;;;;;;6.07;4.57;;;3.30;99.90;;;;;;5092484;28;20229;-84
2021/03/15 02:23:14;;;;;;;9.05;4.45;;;3.30;99.90;;;;;;5078630;28;20721;-84
2021/03/15 02:26:17;;;;;;;6.40;5.07;;;3.20;99.90;;;;;;5092109;28;20190;-84
2021/03/15 02:29:36;;;;;;;11.63;5.22;;;3.20;99.90;;;;;;5091992;28;20295;-84
2021/03/15 02:32:28;;;;;;;9.30;4.63;;;3.20;99.90;;;;;;5092246;28;20194;-83
2021/03/15 02:35:01;;;;;;;6.28;4.50;;;3.20;99.90;;;;;;5089780;28;20195;-84
2021/03/15 02:37:32;;;;;;;5.88;5.00;;;3.00;99.90;;;;;;5094369;28;20256;-83
2021/03/15 02:40:08;;;;;;;6.15;4.97;;;3.10;99.90;;;;;;5095882;28;20712;-84
2021/03/15 02:42:36;;;;;;;5.93;5.20;;;3.10;99.90;;;;;;5094060;28;20199;-83
2021/03/15 02:45:07;;;;;;;6.10;5.53;;;3.00;99.90;;;;;;5094261;28;20207;-84
2021/03/15 02:47:39;;;;;;;7.20;5.00;;;3.00;99.90;;;;;;5093537;28;20682;-83
2021/03/15 02:50:11;;;;;;;5.47;4.38;;;3.00;99.90;;;;;;5079193;28;20187;-83
2021/03/15 02:52:45;;;;;;;5.75;4.70;;;3.00;99.90;;;;;;5092237;28;20221;-83
2021/03/15 02:55:16;;;;;;;6.00;4.45;;;3.20;99.90;;;;;;5091989;28;20222;-84
2021/03/15 02:57:46;;;;;;;4.90;4.50;;;3.30;99.90;;;;;;5093092;28;20195;-84
2021/03/15 03:00:16;;;;;;;5.93;5.30;;;3.40;99.90;;;;;;5094178;28;20313;-83
2021/03/15 03:02:46;;;;;;;6.32;5.28;;;3.40;99.90;;;;;;5075961;28;20234;-83
2021/03/15 03:05:18;;;;;;;6.82;5.20;;;3.50;99.90;;;;;;5093971;28;20571;-83
2021/03/15 03:07:48;;;;;;;7.57;4.93;;;3.50;99.90;;;;;;5093668;28;20205;-83
2021/03/15 03:10:19;;;;;;;9.35;4.22;;;3.60;99.90;;;;;;5094630;28;20251;-83
2021/03/15 03:12:48;;;;;;;8.85;7.55;;;3.70;99.90;;;;;;5092127;28;20244;-83
2021/03/15 03:15:19;;;;;;;7.57;5.20;;;3.80;99.90;;;;;;5093334;28;20203;-83
2021/03/15 03:17:48;;;;;;;8.95;5.45;;;3.90;99.90;;;;;;5091001;28;20202;-84
2021/03/15 03:20:20;;;;;;;5.40;4.90;;;3.70;99.90;;;;;;5090292;28;20230;-83
2021/03/15 03:22:50;;;;;;;5.80;4.43;;;3.50;99.90;;;;;;5090376;28;20186;-83
2021/03/15 03:25:18;;;;;;;6.80;4.97;;;3.70;99.90;;;;;;5092232;28;20187;-84
2021/03/15 03:27:53;;;;;;;5.25;4.75;;;3.70;99.90;;;;;;5091816;28;21686;-84
2021/03/15 03:30:23;;;;;;;5.15;4.65;;;3.60;99.90;;;;;;5092496;28;20355;-83
2021/03/15 03:32:51;;;;;;;7.30;5.03;;;3.50;99.90;;;;;;5090731;28;20675;-83
2021/03/15 03:35:19;;;;;;;5.30;4.80;;;3.60;99.90;;;;;;5090361;28;20226;-82
2021/03/15 03:37:45;;;;;;;5.15;4.43;;;3.50;99.90;;;;;;5090431;28;20252;-83
2021/03/15 03:40:13;;;;;;;9.15;5.45;;;3.50;99.90;;;;;;5091076;28;20631;-83
2021/03/15 03:42:40;;;;;;;6.35;5.15;;;3.60;99.90;;;;;;5090518;28;20209;-83
2021/03/15 03:45:08;;;;;;;6.47;4.82;;;3.50;99.90;;;;;;5090781;28;20199;-83
2021/03/15 03:47:34;;;;;;;6.25;4.95;;;3.60;99.90;;;;;;5090665;28;20199;-83
2021/03/15 03:50:01;;;;;;;11.38;4.72;;;3.70;99.90;;;;;;5092828;28;20216;-83
2021/03/15 03:52:31;;;;;;;4.65;4.25;;;3.70;99.90;;;;;;5092741;28;20236;-83
2021/03/15 03:55:01;;;;;;;4.15;3.75;;;3.50;99.90;;;;;;5092791;28;20577;-83
2021/03/15 03:57:30;;;;;;;7.72;4.57;;;3.60;99.90;;;;;;5091833;28;20205;-83
2021/03/15 03:59:59;;;;;;;4.65;4.25;;;3.80;99.90;;;;;;5087183;28;20594;-83
2021/03/15 04:02:27;;;;;;;4.40;4.00;;;3.70;99.90;;;;;;5091222;28;20239;-82
2021/03/15 04:04:59;;;;;;;5.35;3.90;;;3.60;99.90;;;;;;5090961;28;20197;-83
2021/03/15 04:07:28;;;;;;;4.93;4.43;;;3.70;99.90;;;;;;5091714;28;20218;-83
2021/03/15 04:10:05;;;;;;;9.38;5.00;;;3.70;99.90;;;;;;5091609;28;20191;-82
2021/03/15 04:12:34;;;;;;;4.50;3.80;;;3.70;99.90;;;;;;5091337;28;20319;-82
2021/03/15 04:15:01;;;;;;;6.20;4.65;;;3.90;99.90;;;;;;5091339;28;20206;-82
2021/03/15 04:17:32;;;;;;;7.30;4.05;;;3.90;99.90;;;;;;5090105;28;20203;-82
2021/03/15 04:20:05;;;;;;;6.10;3.60;;;4.00;99.90;;;;;;5090190;28;20222;-82
2021/03/15 04:22:38;;;;;;;6.32;4.35;;;3.90;99.90;;;;;;5089703;28;20201;-81
2021/03/15 04:25:06;;;;;;;4.18;3.80;;;4.00;99.90;;;;;;5091114;28;20598;-82
2021/03/15 04:27:33;;;;;;;5.55;4.20;;;4.00;99.90;;;;;;5090768;28;20205;-82
2021/03/15 04:30:00;;;;;;;9.38;4.68;;;4.00;99.90;;;;;;5089744;28;20210;-82
2021/03/15 04:32:27;;;;;;;4.50;4.07;;;3.90;99.90;;;;;;5090646;28;20656;-81
2021/03/15 04:34:54;;;;;;;7.57;4.90;;;4.00;99.90;;;;;;5090521;28;20203;-82
2021/03/15 04:37:22;;;;;;;5.65;4.00;;;4.00;99.90;;;;;;5090002;28;20206;-81
2021/03/15 04:39:50;;;;;;;4.35;3.95;;;3.80;99.90;;;;;;5090671;28;20217;-82
2021/03/15 04:42:18;;;;;;;5.20;4.28;;;4.00;99.90;;;;;;5090334;28;20191;-82
2021/03/15 04:44:44;;;;;;;5.55;4.40;;;4.00;99.90;;;;;;5089045;28;20206;-82
2021/03/15 04:47:13;;;;;;;6.30;4.30;;;4.20;99.90;;;;;;5090451;28;20215;-82
2021/03/15 04:49:40;;;;;;;6.35;4.00;;;4.30;99.90;;;;;;5089964;28;20198;-81
2021/03/15 04:52:07;;;;;;;5.30;4.30;;;4.20;99.90;;;;;;5089911;28;20660;-82
2021/03/15 04:54:34;;;;;;;5.60;3.90;;;4.20;99.90;;;;;;5088550;28;20222;-81
2021/03/15 04:57:02;;;;;;;3.92;3.58;;;4.10;99.90;;;;;;5089446;28;20199;-81
2021/03/15 04:59:32;;;;;;;4.80;4.03;;;4.30;99.90;;;;;;5089244;28;20774;-81
2021/03/15 05:02:00;;;;;;;6.45;4.35;;;4.40;99.90;;;;;;5093319;28;20536;-81
2021/03/15 05:04:26;;;;;;;5.15;4.65;;;4.30;99.90;;;;;;5089519;28;20187;-81
2021/03/15 05:06:54;;;;;;;3.92;3.53;;;4.20;99.90;;;;;;5093577;28;20203;-81
2021/03/15 05:09:21;;;;;;;6.75;4.60;;;4.10;99.90;;;;;;5092270;28;20210;-81
2021/03/15 05:11:50;;;;;;;5.95;5.13;;;4.20;99.90;;;;;;5093189;28;20203;-81
2021/03/15 05:14:18;;;;;;;6.55;4.28;;;4.30;99.90;;;;;;5092744;28;20198;-81
2021/03/15 05:16:45;;;;;;;6.65;4.50;;;4.10;99.90;;;;;;5093617;28;20556;-82
2021/03/15 05:19:13;;;;;;;5.35;3.60;;;4.20;99.90;;;;;;5092484;28;20687;-82
2021/03/15 05:21:41;;;;;;;7.97;3.55;;;4.30;99.90;;;;;;5093291;28;20612;-82
2021/03/15 05:24:09;;;;;;;4.95;4.40;;;4.30;99.90;;;;;;5091793;28;20190;-82
2021/03/15 05:26:38;;;;;;;6.20;4.22;;;4.40;99.90;;;;;;5092967;28;20686;-82
2021/03/15 05:29:06;;;;;;;8.90;3.60;;;4.30;99.90;;;;;;5093120;28;20203;-83
2021/03/15 05:31:35;;;;;;;6.60;4.38;;;4.30;99.90;;;;;;5092198;28;21015;-83
2021/03/15 05:34:02;;;;;;;5.07;3.53;;;4.10;99.90;;;;;;5092088;28;20679;-84
2021/03/15 05:36:30;;;;;;;8.50;4.53;;;4.30;99.90;;;;;;5092316;28;20191;-85
2021/03/15 05:38:56;;;;;;;3.95;3.50;;;4.40;99.90;;;;;;5091346;28;20226;-84
2021/03/15 05:41:38;;;;;;;7.90;4.72;;;4.20;99.90;;;;;;5093066;28;20206;-84
2021/03/15 05:44:20;;;;;;;5.78;4.45;;;4.20;99.90;;;;;;5088934;28;20214;-84
2021/03/15 05:47:19;;;;;;;4.65;4.13;;;4.30;99.90;;;;;;5092606;28;20194;-84
2021/03/15 05:50:20;;;;;;;4.90;4.40;;;4.10;99.90;;;;;;5092670;28;20248;-84
2021/03/15 05:53:03;;;;;;;10.30;4.10;;;3.90;99.90;;;;;;5073101;28;20206;-85
2021/03/15 05:55:57;;;;;;;9.27;4.60;;;4.00;99.90;;;;;;5091859;28;20842;-84
2021/03/15 05:58:57;;;;;;;4.95;4.47;;;3.90;99.90;;;;;;5092329;28;20628;-85
2021/03/15 06:01:48;;;;;;;4.82;3.72;;;4.00;99.90;;;;;;5092202;28;20199;-85
2021/03/15 06:04:39;;;;;;;4.85;3.60;;;3.90;99.90;;;;;;5089088;28;20206;-84
2021/03/15 06:07:09;;;;;;;5.07;4.47;;;4.00;99.90;;;;;;5092679;28;20207;-84
2021/03/15 06:09:43;;;;;;;4.38;3.92;;;3.80;99.90;;;;;;5091787;28;20218;-84
2021/03/15 06:12:19;;;;;;;5.20;4.50;;;4.00;99.90;;;;;;5091373;28;20194;-84
2021/03/15 06:14:48;;;;;;;4.30;3.90;;;4.00;99.90;;;;;;5085590;28;20285;-84
2021/03/15 06:17:15;;;;;;;8.88;4.28;;;3.90;99.90;;;;;;5092935;28;20199;-84
2021/03/15 06:19:44;;;;;;;4.95;4.45;;;3.90;99.90;;;;;;5092116;28;20250;-84
2021/03/15 06:22:11;;;;;;;4.18;3.63;;;4.10;99.90;;;;;;5088322;28;20287;-84
2021/03/15 06:24:39;;;;;;;6.63;4.03;;;4.20;99.90;;;;;;5084234;28;20179;-84
2021/03/15 06:27:08;;;;;;;6.10;3.70;;;4.10;99.90;;;;;;5091485;28;20542;-85
2021/03/15 06:29:35;;;;;;;6.95;4.13;;;3.90;99.90;;;;;;5092375;28;20203;-85
2021/03/15 06:32:02;;;;;;;5.95;4.07;;;3.90;99.90;;;;;;5091860;28;20281;-85
2021/03/15 06:34:30;;;;;;;8.13;4.07;;;4.00;99.90;;;;;;5091754;28;20557;-84
2021/03/15 06:36:57;;;;;;;8.90;4.65;;;3.70;99.90;;;;;;5090373;28;20191;-86
2021/03/15 06:39:27;;;;;;;4.60;4.20;;;3.80;99.90;;;;;;5091350;28;20234;-85
2021/03/15 06:41:56;;;;;;;5.80;4.25;;;3.80;99.90;;;;;;5092684;28;20213;-86
2021/03/15 06:44:23;;;;;;;7.40;4.40;;;3.70;99.90;;;;;;5092124;28;20187;-85
2021/03/15 06:46:51;;;;;;;5.15;3.20;;;3.80;99.90;;;;;;5093792;28;20187;-87
2021/03/15 06:49:18;;;;;;;5.05;3.50;;;3.80;99.90;;;;;;5092779;28;20306;-87
2021/03/15 06:52:04;;;;;;;5.97;3.05;;;3.80;99.90;;;;;;5091325;28;20711;-88
2021/03/15 06:54:30;;;;;;;4.10;3.38;;;3.90;99.90;;;;;;5091490;28;20224;-86
2021/03/15 06:57:16;;;;;;;3.88;3.53;;;3.80;99.90;;;;;;5091896;28;20252;-86
2021/03/15 06:59:51;;;;;;;3.70;3.38;;;3.70;99.90;;;;;;5071956;28;20226;-86
2021/03/15 07:02:22;;;;;;;3.28;3.08;;;3.70;99.90;;;;;;5091461;28;20204;-88
2021/03/15 07:04:49;;;;;;;4.72;3.10;;;3.80;99.90;;;;;;5091001;28;20244;-88
2021/03/15 07:07:28;;;;;;;4.00;3.60;;;4.00;99.90;;;;;;5092121;28;20190;-88
2021/03/15 07:09:56;;;;;;;3.88;3.58;;;4.10;99.90;;;;;;5091386;28;20194;-88
2021/03/15 07:12:24;;;;;;;3.65;3.35;;;4.10;99.90;;;;;;5085216;28;20192;-88
2021/03/15 07:14:52;;;;;;;3.95;3.55;;;4.10;99.90;;;;;;5092564;28;20649;-88
2021/03/15 07:17:25;;;;;;;3.58;3.28;;;3.90;99.90;;;;;;5091675;28;20210;-88
2021/03/15 07:19:53;;;;;;;6.47;2.88;;;4.00;99.90;;;;;;5091686;28;20219;-88
2021/03/15 07:22:22;;;;;;;2.78;2.58;;;4.10;99.90;;;;;;5084551;28;20615;-88
2021/03/15 07:25:07;;;;;;;3.70;2.75;;;4.30;99.90;;;;;;5091749;28;20199;-89
2021/03/15 07:27:35;;;;;;;4.90;3.15;;;4.30;99.90;;;;;;5091822;28;20190;-87
2021/03/15 07:30:30;;;;;;;2.50;2.30;;;4.10;99.90;;;;;;5091595;28;20191;-87
2021/03/15 07:32:59;;;;;;;3.00;2.70;;;4.10;99.90;;;;;;5090879;28;20203;-88
2021/03/15 07:35:29;;;;;;;3.15;2.58;;;3.90;99.90;;;;;;5091656;28;20194;-87
2021/03/15 07:37:56;;;;;;;2.70;1.95;;;3.70;99.90;;;;;;5089045;28;20187;-87
2021/03/15 07:40:38;;;;;;;2.17;1.98;;;3.10;99.90;;;;;;5093097;28;20244;-88
2021/03/15 07:43:06;;;;;;;5.25;2.60;;;3.00;99.90;;;;;;5087560;28;20207;-88
2021/03/15 07:45:42;;;;;;;3.92;2.67;;;3.00;99.90;;;;;;5093082;28;20198;-89
2021/03/15 07:48:16;;;;;;;2.53;2.30;;;3.20;99.90;;;;;;5093199;28;20201;-88
2021/03/15 07:50:54;;;;;;;3.63;2.40;;;3.20;99.90;;;;;;5095065;28;20218;-89
2021/03/15 07:53:34;;;;;;;2.75;2.38;;;3.50;99.90;;;;;;5094339;28;20201;-89
2021/03/15 07:56:01;;;;;;;3.05;2.30;;;3.50;99.90;;;;;;5094654;28;20247;-89
2021/03/15 07:58:32;;;;;;;4.10;2.80;;;3.60;99.90;;;;;;5092785;28;20195;-89
2021/03/15 08:00:59;;;;;;;3.40;3.10;;;3.80;99.90;;;;;;5093994;28;20219;-90
2021/03/15 08:03:26;;;;;;;2.63;2.13;;;3.90;99.90;;;;;;5094927;28;20197;-89
2021/03/15 08:05:54;;;;;;;5.68;2.95;;;3.70;99.90;;;;;;5093905;28;20289;-90
2021/03/15 08:08:20;;;;;;;2.25;2.05;;;3.80;99.90;;;;;;5094192;28;20195;-89
2021/03/15 08:10:47;;;;;;;3.08;2.30;;;3.60;99.90;;;;;;5093207;28;20186;-90
2021/03/15 08:13:18;;;;;;;3.63;2.88;;;3.70;99.90;;;;;;5094266;28;20202;-89
2021/03/15 08:15:47;;;;;;;2.88;2.58;;;3.60;99.90;;;;;;5094727;28;20201;-90
2021/03/15 08:18:21;;;;;;;3.50;3.03;;;3.60;99.90;;;;;;5094419;28;20216;-88
2021/03/15 08:20:51;;;;;;;2.65;2.45;;;3.80;99.90;;;;;;5095413;28;20225;-88
2021/03/15 08:23:19;;;;;;;4.20;3.45;;;3.70;99.90;;;;;;5093821;28;20201;-89
2021/03/15 08:25:47;;;;;;;3.65;3.10;;;3.60;99.90;;;;;;5094866;28;20191;-90
2021/03/15 08:28:16;;;;;;;2.63;2.42;;;3.70;99.90;;;;;;5094679;28;20277;-90
2021/03/15 08:30:55;;;;;;;2.55;2.30;;;3.70;99.90;;;;;;5094892;28;20251;-90
2021/03/15 08:33:22;;;;;;;2.35;2.15;;;3.60;99.90;;;;;;5094569;28;20233;-90
2021/03/15 08:35:54;;;;;;;2.65;2.45;;;4.00;99.90;;;;;;5097791;28;20227;-89
2021/03/15 08:38:29;;;;;;;2.30;2.08;;;4.00;99.90;;;;;;5098561;28;20248;-90
2021/03/15 08:40:59;;;;;;;2.47;2.28;;;4.10;99.90;;;;;;5100156;28;20242;-90
2021/03/15 08:43:35;;;;;;;2.00;1.90;;;4.00;99.90;;;;;;5098981;28;20195;-90
2021/03/15 08:46:03;;;;;;;1.75;1.65;;;4.00;99.90;;;;;;5100652;28;20193;-90
2021/03/15 08:49:02;;;;;;;2.08;1.52;;;4.10;99.90;;;;;;5099960;28;20224;-89
2021/03/15 08:51:45;;;;;;;2.65;2.15;;;3.80;99.90;;;;;;5096556;28;20246;-90
2021/03/15 08:54:16;;;;;;;2.55;1.67;;;3.90;99.90;;;;;;5104484;28;20205;-90
2021/03/15 08:56:46;;;;;;;1.30;1.20;;;4.00;99.90;;;;;;5099324;28;20415;-90
2021/03/15 08:59:14;;;;;;;2.58;1.20;;;4.00;99.90;;;;;;5099493;28;20226;-90
2021/03/15 09:01:54;;;;;;;1.50;1.40;;;4.10;99.90;;;;;;5099738;28;20248;-90
2021/03/15 09:04:45;;;;;;;2.33;2.00;;;4.00;99.90;;;;;;5099600;28;20198;-90
2021/03/15 09:07:32;;;;;;;1.70;1.60;;;3.90;99.90;;;;;;5099305;28;20213;-89
2021/03/15 09:10:44;;;;;;;2.10;1.75;;;3.90;99.90;;;;;;5099398;28;20186;-90
2021/03/15 09:13:29;;;;;;;1.60;1.50;;;4.00;99.90;;;;;;5089751;28;20229;-88
2021/03/15 09:16:05;;;;;;;1.92;1.75;;;4.10;99.90;;;;;;5099160;28;20232;-89
2021/03/15 09:18:56;;;;;;;1.58;1.48;;;4.20;99.90;;;;;;5098879;28;20657;-89
2021/03/15 09:21:54;;;;;;;1.58;1.48;;;4.20;99.90;;;;;;5086856;28;20201;-89
2021/03/15 09:24:47;;;;;;;2.03;1.83;;;4.20;99.90;;;;;;5063436;28;20644;-89
2021/03/15 09:27:30;;;;;;;1.40;1.30;;;4.20;99.90;;;;;;5099295;28;20196;-87
2021/03/15 09:29:58;;;;;;;1.38;1.20;;;4.10;99.90;;;;;;5098385;28;20235;-87
2021/03/15 09:32:31;;;;;;;1.42;1.33;;;4.10;99.90;;;;;;5098302;28;20198;-88
2021/03/15 09:34:59;;;;;;;1.63;1.50;;;4.10;99.90;;;;;;5099573;28;20194;-87
2021/03/15 09:37:27;;;;;;;1.27;1.17;;;4.10;99.90;;;;;;5098345;28;20295;-87
2021/03/15 09:39:56;;;;;;;0.90;0.90;;;4.00;99.90;;;;;;5081233;28;20223;-86
2021/03/15 09:42:23;;;;;;;1.50;1.40;;;4.20;99.90;;;;;;5079027;28;20249;-87
2021/03/15 09:44:49;;;;;;;1.30;1.30;;;4.10;99.90;;;;;;5096774;28;20586;-86
2021/03/15 09:47:24;;;;;;;1.63;1.40;;;4.30;99.90;;;;;;5095102;28;20199;-86
2021/03/15 09:49:52;;;;;;;1.52;1.40;;;4.30;99.90;;;;;;5098454;28;20193;-87
2021/03/15 09:52:21;;;;;;;1.70;1.60;;;4.40;99.90;;;;;;5097960;28;20205;-86
2021/03/15 09:54:49;;;;;;;1.92;1.70;;;4.40;99.90;;;;;;5098730;28;20197;-86
2021/03/15 09:57:17;;;;;;;2.72;1.95;;;4.60;99.90;;;;;;5097766;28;20191;-86
2021/03/15 09:59:44;;;;;;;2.38;2.05;;;4.60;99.90;;;;;;5097796;28;20222;-86
2021/03/15 10:02:14;;;;;;;2.55;2.08;;;4.70;99.90;;;;;;5097871;28;20182;-86
2021/03/15 10:04:42;;;;;;;3.33;2.90;;;4.60;99.90;;;;;;5089656;28;20187;-86
2021/03/15 10:07:12;;;;;;;3.03;2.45;;;4.70;99.90;;;;;;5078311;28;20198;-86
2021/03/15 10:09:40;;;;;;;2.70;2.50;;;4.70;99.90;;;;;;5096814;28;20207;-86
2021/03/15 10:12:08;;;;;;;3.80;2.58;;;4.80;99.90;;;;;;5097423;28;20201;-86
2021/03/15 10:14:35;;;;;;;3.58;3.25;;;4.80;99.90;;;;;;5097350;28;20187;-86
2021/03/15 10:17:04;;;;;;;2.42;2.17;;;4.90;99.90;;;;;;5093083;28;20217;-85
2021/03/15 10:19:32;;;;;;;2.22;2.03;;;4.80;99.90;;;;;;5096702;28;20225;-86
2021/03/15 10:22:11;;;;;;;2.65;2.22;;;4.90;99.90;;;;;;5097172;28;20194;-85
2021/03/15 10:24:39;;;;;;;2.60;2.40;;;4.80;99.90;;;;;;5096936;28;20190;-86
2021/03/15 10:27:07;;;;;;;2.47;2.25;;;4.70;99.90;;;;;;5097729;28;20313;-85
2021/03/15 10:29:34;;;;;;;2.72;2.15;;;4.80;99.90;;;;;;5097022;28;20206;-85
2021/03/15 10:32:03;;;;;;;2.50;2.30;;;4.80;99.90;;;;;;5096535;28;20194;-86
2021/03/15 10:34:30;;;;;;;2.63;2.42;;;4.90;99.90;;;;;;5096608;28;20542;-86
2021/03/15 10:36:58;;;;;;;2.25;2.05;;;5.00;99.90;;;;;;5096893;28;20264;-86
2021/03/15 10:39:26;;;;;;;3.00;2.08;;;4.80;99.90;;;;;;5083560;28;20215;-86
2021/03/15 10:41:54;;;;;;;3.13;2.80;;;4.90;99.90;;;;;;5089231;28;20221;-85
2021/03/15 10:44:22;;;;;;;1.92;1.77;;;4.90;99.90;;;;;;5096866;28;20199;-85
2021/03/15 10:47:04;;;;;;;2.80;1.85;;;5.00;99.90;;;;;;5096827;28;20205;-85
2021/03/15 10:49:32;;;;;;;2.90;2.13;;;4.90;99.90;;;;;;5096515;28;20198;-84
2021/03/15 10:51:59;;;;;;;2.70;2.50;;;4.90;99.90;;;;;;5097000;28;20199;-84
2021/03/15 10:54:32;;;;;;;2.03;1.85;;;4.90;99.90;;;;;;5096635;28;20201;-85
2021/03/15 10:57:17;;;;;;;2.47;2.28;;;4.80;99.90;;;;;;5096627;28;20232;-86
2021/03/15 10:59:44;;;;;;;2.58;2.38;;;4.70;99.90;;;;;;5093951;28;20237;-85
2021/03/15 11:02:20;;;;;;;3.05;2.42;;;4.70;99.90;;;;;;5095191;28;20278;-85
2021/03/15 11:04:52;;;;;;;2.40;2.20;;;4.80;99.90;;;;;;5084743;28;20722;-85
2021/03/15 11:07:24;;;;;;;2.60;2.40;;;5.00;99.90;;;;;;5095724;28;20689;-85
2021/03/15 11:10:00;;;;;;;2.40;2.10;;;5.00;99.90;;;;;;5095974;28;20298;-86
2021/03/15 11:12:39;;;;;;;2.50;2.30;;;5.20;99.90;;;;;;5096413;28;20190;-86
2021/03/15 11:15:07;;;;;;;1.90;1.80;;;5.20;99.90;;;;;;5092608;28;20186;-84
2021/03/15 11:17:38;;;;;;;2.40;2.20;;;5.10;99.90;;;;;;5096089;28;20206;-86
2021/03/15 11:20:09;;;;;;;2.40;2.20;;;5.30;99.90;;;;;;5095355;28;20222;-85
2021/03/15 11:22:49;;;;;;;2.78;2.53;;;5.10;99.90;;;;;;5094618;28;20198;-84
2021/03/15 11:25:18;;;;;;;1.90;1.80;;;5.10;99.90;;;;;;5093651;28;20202;-85
2021/03/15 11:27:50;;;;;;;2.90;2.15;;;5.00;99.90;;;;;;5095458;28;20222;-85
2021/03/15 11:30:29;;;;;;;3.03;2.70;;;5.10;99.90;;;;;;5095340;28;20243;-85
2021/03/15 11:33:05;;;;;;;2.55;2.35;;;5.40;99.90;;;;;;5095042;28;20201;-86
2021/03/15 11:35:34;;;;;;;3.03;2.83;;;5.30;99.90;;;;;;5095729;28;20199;-85
2021/03/15 11:38:02;;;;;;;5.05;3.88;;;5.50;99.90;;;;;;5096357;28;20213;-86
2021/03/15 11:40:36;;;;;;;2.92;2.72;;;5.60;99.90;;;;;;5095571;28;20225;-86
2021/03/15 11:43:06;;;;;;;3.15;2.88;;;5.70;99.90;;;;;;5083750;28;20206;-85
2021/03/15 11:45:33;;;;;;;2.80;2.55;;;5.90;99.90;;;;;;5094877;28;20198;-85
2021/03/15 11:48:00;;;;;;;3.70;3.40;;;6.00;99.90;;;;;;5095248;28;20195;-85
2021/03/15 11:50:26;;;;;;;6.82;2.92;;;6.10;99.90;;;;;;5096017;28;20226;-85
2021/03/15 11:52:53;;;;;;;5.32;3.70;;;6.10;99.90;;;;;;5094568;28;20187;-84
2021/03/15 11:55:37;;;;;;;3.67;3.03;;;5.90;99.90;;;;;;5095580;28;20198;-85
2021/03/15 11:58:04;;;;;;;3.58;3.28;;;5.80;99.90;;;;;;5093010;28;20211;-84
2021/03/15 12:00:48;;;;;;;4.15;2.97;;;5.80;99.90;;;;;;5094210;28;20218;-86
2021/03/15 12:03:40;;;;;;;3.88;2.95;;;5.80;99.90;;;;;;5094770;28;20190;-86
2021/03/15 12:06:19;;;;;;;3.10;2.90;;;5.80;99.90;;;;;;5094349;28;20195;-85
2021/03/15 12:08:46;;;;;;;3.47;3.17;;;5.80;99.90;;;;;;5094103;28;20206;-85
2021/03/15 12:11:13;;;;;;;2.67;2.50;;;5.90;99.90;;;;;;5094771;28;20202;-85
2021/03/15 12:13:39;;;;;;;4.45;3.25;;;6.00;99.90;;;;;;5079023;28;20194;-85
2021/03/15 12:16:06;;;;;;;3.40;3.10;;;6.40;99.90;;;;;;5094611;28;20216;-84
2021/03/15 12:18:33;;;;;;;2.80;2.60;;;6.40;99.90;;;;;;5094018;28;20226;-85
2021/03/15 12:21:00;;;;;;;3.90;3.60;;;6.50;99.90;;;;;;5092370;28;20249;-85
2021/03/15 12:23:26;;;;;;;3.47;3.17;;;6.60;99.90;;;;;;5093449;28;20206;-85
2021/03/15 12:26:19;;;;;;;3.20;2.90;;;6.50;99.90;;;;;;5094763;28;20190;-85
2021/03/15 12:28:46;;;;;;;3.35;3.05;;;6.50;99.90;;;;;;5089998;28;20198;-83
2021/03/15 12:31:12;;;;;;;3.08;2.88;;;6.60;99.90;;;;;;5093690;28;20193;-84
2021/03/15 12:33:39;;;;;;;4.03;3.35;;;6.50;99.90;;;;;;5094060;28;20202;-84
2021/03/15 12:36:06;;;;;;;3.05;2.83;;;6.50;99.90;;;;;;5093556;28;20205;-84
2021/03/15 12:38:32;;;;;;;4.63;3.53;;;6.50;99.90;;;;;;5080474;28;20191;-83
2021/03/15 12:40:59;;;;;;;3.20;2.95;;;6.50;99.90;;;;;;5094275;28;20215;-84
2021/03/15 12:43:27;;;;;;;5.93;4.00;;;6.50;99.90;;;;;;5094338;28;20198;-83
2021/03/15 12:45:53;;;;;;;6.00;3.70;;;6.70;99.90;;;;;;5094191;28;20613;-84
2021/03/15 12:48:20;;;;;;;3.35;3.05;;;6.80;99.90;;;;;;5094367;28;20218;-84
2021/03/15 12:50:47;;;;;;;2.78;2.58;;;6.90;99.90;;;;;;5095035;28;20190;-85
2021/03/15 12:53:13;;;;;;;4.95;4.28;;;6.80;99.90;;;;;;5092844;28;20190;-83
2021/03/15 12:55:40;;;;;;;3.88;3.10;;;6.90;99.70;;;;;;5093768;28;20197;-83
2021/03/15 12:58:06;;;;;;;2.92;2.72;;;6.70;99.40;;;;;;5094151;28;20574;-83
2021/03/15 13:00:34;;;;;;;3.38;3.00;;;6.80;99.20;;;;;;5091875;28;20227;-83
2021/03/15 13:03:00;;;;;;;4.43;3.63;;;7.20;99.90;;;;;;5093110;28;20206;-83
2021/03/15 13:05:27;;;;;;;3.03;2.83;;;7.80;99.90;;;;;;5093711;28;20202;-83
2021/03/15 13:07:53;;;;;;;3.97;2.95;;;7.90;98.00;;;;;;5094612;28;20191;-82
2021/03/15 13:10:23;;;;;;;3.92;3.42;;;7.60;96.40;;;;;;5094329;28;20210;-84
2021/03/15 13:12:49;;;;;;;2.55;2.45;;;7.60;96.70;;;;;;5092920;28;20195;-84
2021/03/15 13:15:16;;;;;;;2.50;2.30;;;7.30;94.00;;;;;;5093483;28;20194;-83
2021/03/15 13:17:52;;;;;;;3.13;2.40;;;7.30;94.10;;;;;;5093456;28;20314;-84
2021/03/15 13:20:19;;;;;;;2.80;2.55;;;7.10;92.90;;;;;;5092641;28;20320;-83